sensor_id;sensor_type;location;lat;lon;timestamp;pressure;altitude;pressure_sealevel;temperature;humidity
55490;BME280;44029;52.956;4.772;2023-01-10T00:00:36;101042.66;;;9.44;100.00
55490;BME280;44029;52.956;4.772;2023-01-10T00:03:06;101037.88;;;9.52;100.00
55490;BME280;44029;52.956;4.772;2023-01-10T00:05:33;101040.84;;;9.38;100.00
55490;BME280;44029;52.956;4.772;2023-01-10T00:07:59;101044.53;;;9.20;100.00
55490;BME280;44029;52.956;4.772;2023-01-10T00:10:26;101041.47;;;9.40;100.00
55490;BME280;44029;52.956;4.772;2023-01-10T00:12:52;101048.34;;;9.31;100.00
55490;BME280;44029;52.956;4.772;2023-01-10T00:15:36;101048.81;;;9.52;100.00
55490;BME280;44029;52.956;4.772;2023-01-10T00:18:02;101042.28;;;9.53;100.00
55490;BME280;44029;52.956;4.772;2023-01-10T00:20:28;101041.91;;;9.49;100.00
55490;BME280;44029;52.956;4.772;2023-01-10T00:22:54;101047.41;;;9.37;100.00
55490;BME280;44029;52.956;4.772;2023-01-10T00:25:19;101054.03;;;9.41;100.00
55490;BME280;44029;52.956;4.772;2023-01-10T00:27:46;101059.53;;;9.53;100.00
55490;BME280;44029;52.956;4.772;2023-01-10T00:30:20;101070.69;;;9.40;100.00
55490;BME280;44029;52.956;4.772;2023-01-10T00:32:45;101080.34;;;9.42;100.00
55490;BME280;44029;52.956;4.772;2023-01-10T00:35:11;101077.34;;;9.56;100.00
55490;BME280;44029;52.956;4.772;2023-01-10T00:37:38;101073.22;;;9.53;100.00
55490;BME280;44029;52.956;4.772;2023-01-10T00:40:05;101089.16;;;9.68;100.00
55490;BME280;44029;52.956;4.772;2023-01-10T00:42:34;101085.91;;;9.47;100.00
55490;BME280;44029;52.956;4.772;2023-01-10T00:45:19;101089.59;;;9.41;100.00
55490;BME280;44029;52.956;4.772;2023-01-10T00:47:45;101101.34;;;9.42;100.00
55490;BME280;44029;52.956;4.772;2023-01-10T00:50:11;101095.66;;;9.43;100.00
55490;BME280;44029;52.956;4.772;2023-01-10T00:52:36;101104.00;;;9.37;100.00
55490;BME280;44029;52.956;4.772;2023-01-10T00:55:02;101103.50;;;9.40;100.00
55490;BME280;44029;52.956;4.772;2023-01-10T00:57:27;101097.06;;;9.34;100.00
55490;BME280;44029;52.956;4.772;2023-01-10T00:59:52;101106.00;;;9.29;100.00
55490;BME280;44029;52.956;4.772;2023-01-10T01:02:18;101099.22;;;9.32;100.00
55490;BME280;44029;52.956;4.772;2023-01-10T01:04:43;101104.09;;;9.30;100.00
55490;BME280;44029;52.956;4.772;2023-01-10T01:07:08;101107.28;;;9.27;100.00
55490;BME280;44029;52.956;4.772;2023-01-10T01:09:34;101098.38;;;9.32;100.00
55490;BME280;44029;52.956;4.772;2023-01-10T01:12:19;101107.03;;;9.28;100.00
55490;BME280;44029;52.956;4.772;2023-01-10T01:14:44;101119.44;;;9.31;100.00
55490;BME280;44029;52.956;4.772;2023-01-10T01:17:10;101120.84;;;9.22;100.00
55490;BME280;44029;52.956;4.772;2023-01-10T01:19:35;101116.19;;;9.22;100.00
55490;BME280;44029;52.956;4.772;2023-01-10T01:22:00;101124.91;;;9.01;100.00
55490;BME280;44029;52.956;4.772;2023-01-10T01:24:26;101124.78;;;8.96;100.00
55490;BME280;44029;52.956;4.772;2023-01-10T01:26:51;101124.09;;;9.00;100.00
55490;BME280;44029;52.956;4.772;2023-01-10T01:29:16;101138.81;;;8.99;100.00
55490;BME280;44029;52.956;4.772;2023-01-10T01:31:42;101143.56;;;8.92;100.00
55490;BME280;44029;52.956;4.772;2023-01-10T01:34:07;101149.03;;;8.92;100.00
55490;BME280;44029;52.956;4.772;2023-01-10T01:36:32;101147.28;;;8.98;100.00
55490;BME280;44029;52.956;4.772;2023-01-10T01:38:58;101151.25;;;8.83;100.00
55490;BME280;44029;52.956;4.772;2023-01-10T01:41:23;101165.16;;;8.94;100.00
55490;BME280;44029;52.956;4.772;2023-01-10T01:44:13;101167.69;;;9.25;100.00
55490;BME280;44029;52.956;4.772;2023-01-10T01:46:41;101158.00;;;9.11;100.00
55490;BME280;44029;52.956;4.772;2023-01-10T01:49:13;101155.66;;;9.26;100.00
55490;BME280;44029;52.956;4.772;2023-01-10T01:51:40;101155.66;;;9.26;100.00
55490;BME280;44029;52.956;4.772;2023-01-10T01:54:10;101154.78;;;9.14;100.00
55490;BME280;44029;52.956;4.772;2023-01-10T01:56:42;101159.09;;;9.22;100.00
55490;BME280;44029;52.956;4.772;2023-01-10T01:59:24;101159.50;;;9.37;100.00
55490;BME280;44029;52.956;4.772;2023-01-10T02:01:54;101164.59;;;9.34;100.00
55490;BME280;44029;52.956;4.772;2023-01-10T02:04:26;101173.59;;;9.22;100.00
55490;BME280;44029;52.956;4.772;2023-01-10T02:06:54;101171.59;;;9.29;100.00
55490;BME280;44029;52.956;4.772;2023-01-10T02:09:25;101170.19;;;9.39;100.00
55490;BME280;44029;52.956;4.772;2023-01-10T02:14:35;101187.06;;;9.36;100.00
55490;BME280;44029;52.956;4.772;2023-01-10T02:17:02;101184.09;;;9.37;100.00
55490;BME280;44029;52.956;4.772;2023-01-10T02:19:48;101181.00;;;9.45;100.00
55490;BME280;44029;52.956;4.772;2023-01-10T02:22:43;101183.75;;;9.45;100.00
55490;BME280;44029;52.956;4.772;2023-01-10T02:28:46;101182.75;;;9.70;100.00
55490;BME280;44029;52.956;4.772;2023-01-10T02:34:23;101194.81;;;9.51;100.00
55490;BME280;44029;52.956;4.772;2023-01-10T02:40:01;101195.50;;;9.34;100.00
55490;BME280;44029;52.956;4.772;2023-01-10T02:42:41;101194.50;;;9.59;100.00
55490;BME280;44029;52.956;4.772;2023-01-10T02:45:22;101207.31;;;9.46;100.00
55490;BME280;44029;52.956;4.772;2023-01-10T02:47:50;101214.38;;;9.24;100.00
55490;BME280;44029;52.956;4.772;2023-01-10T02:53:11;101217.53;;;9.51;100.00
55490;BME280;44029;52.956;4.772;2023-01-10T03:01:07;101223.06;;;9.75;100.00
55490;BME280;44029;52.956;4.772;2023-01-10T03:03:40;101225.66;;;9.70;100.00
55490;BME280;44029;52.956;4.772;2023-01-10T03:09:13;101237.31;;;9.65;100.00
55490;BME280;44029;52.956;4.772;2023-01-10T03:11:41;101250.63;;;9.61;100.00
55490;BME280;44029;52.956;4.772;2023-01-10T03:14:15;101233.41;;;9.61;100.00
55490;BME280;44029;52.956;4.772;2023-01-10T03:16:44;101246.47;;;9.59;100.00
55490;BME280;44029;52.956;4.772;2023-01-10T03:19:18;101249.06;;;9.54;100.00
55490;BME280;44029;52.956;4.772;2023-01-10T03:21:44;101255.00;;;9.51;100.00
55490;BME280;44029;52.956;4.772;2023-01-10T03:24:17;101247.81;;;9.68;100.00
55490;BME280;44029;52.956;4.772;2023-01-10T03:29:33;101264.38;;;9.43;100.00
55490;BME280;44029;52.956;4.772;2023-01-10T03:32:03;101261.41;;;9.44;100.00
55490;BME280;44029;52.956;4.772;2023-01-10T03:34:30;101268.34;;;9.28;100.00
55490;BME280;44029;52.956;4.772;2023-01-10T03:39:51;101275.69;;;9.46;100.00
55490;BME280;44029;52.956;4.772;2023-01-10T03:42:25;101276.13;;;9.43;100.00
55490;BME280;44029;52.956;4.772;2023-01-10T03:45:14;101276.06;;;9.20;100.00
55490;BME280;44029;52.956;4.772;2023-01-10T03:47:45;101279.19;;;9.35;100.00
55490;BME280;44029;52.956;4.772;2023-01-10T03:50:23;101277.63;;;9.27;100.00
55490;BME280;44029;52.956;4.772;2023-01-10T03:52:49;101298.06;;;9.06;100.00
55490;BME280;44029;52.956;4.772;2023-01-10T03:55:19;101303.22;;;9.33;100.00
55490;BME280;44029;52.956;4.772;2023-01-10T03:57:46;101287.84;;;9.32;100.00
55490;BME280;44029;52.956;4.772;2023-01-10T04:00:12;101304.03;;;9.34;100.00
55490;BME280;44029;52.956;4.772;2023-01-10T04:02:38;101307.38;;;9.36;100.00
55490;BME280;44029;52.956;4.772;2023-01-10T04:05:04;101313.44;;;9.38;100.00
55490;BME280;44029;52.956;4.772;2023-01-10T04:07:30;101317.38;;;9.42;100.00
55490;BME280;44029;52.956;4.772;2023-01-10T04:09:55;101323.50;;;9.25;100.00
55490;BME280;44029;52.956;4.772;2023-01-10T04:12:20;101331.94;;;9.24;100.00
55490;BME280;44029;52.956;4.772;2023-01-10T04:14:46;101330.44;;;9.40;100.00
55490;BME280;44029;52.956;4.772;2023-01-10T04:17:13;101331.91;;;9.42;100.00
55490;BME280;44029;52.956;4.772;2023-01-10T04:19:39;101325.19;;;9.38;100.00
55490;BME280;44029;52.956;4.772;2023-01-10T04:22:04;101349.09;;;9.31;100.00
55490;BME280;44029;52.956;4.772;2023-01-10T04:24:32;101346.03;;;9.39;100.00
55490;BME280;44029;52.956;4.772;2023-01-10T04:26:57;101349.81;;;9.38;100.00
55490;BME280;44029;52.956;4.772;2023-01-10T04:29:23;101356.13;;;9.39;100.00
55490;BME280;44029;52.956;4.772;2023-01-10T04:31:48;101355.59;;;9.48;100.00
55490;BME280;44029;52.956;4.772;2023-01-10T04:34:14;101354.06;;;9.53;100.00
55490;BME280;44029;52.956;4.772;2023-01-10T04:36:40;101358.09;;;9.50;100.00
55490;BME280;44029;52.956;4.772;2023-01-10T04:39:05;101374.13;;;9.46;100.00
55490;BME280;44029;52.956;4.772;2023-01-10T04:41:31;101368.28;;;9.43;100.00
55490;BME280;44029;52.956;4.772;2023-01-10T04:43:56;101370.25;;;9.54;100.00
55490;BME280;44029;52.956;4.772;2023-01-10T04:46:21;101372.16;;;9.54;100.00
55490;BME280;44029;52.956;4.772;2023-01-10T04:48:47;101377.09;;;9.45;100.00
55490;BME280;44029;52.956;4.772;2023-01-10T04:51:12;101376.72;;;9.41;100.00
55490;BME280;44029;52.956;4.772;2023-01-10T04:53:37;101375.19;;;9.27;100.00
55490;BME280;44029;52.956;4.772;2023-01-10T04:56:07;101374.97;;;9.28;100.00
55490;BME280;44029;52.956;4.772;2023-01-10T04:58:37;101383.00;;;9.23;100.00
55490;BME280;44029;52.956;4.772;2023-01-10T05:01:10;101380.75;;;9.20;100.00
55490;BME280;44029;52.956;4.772;2023-01-10T05:03:36;101371.84;;;9.06;100.00
55490;BME280;44029;52.956;4.772;2023-01-10T05:06:02;101377.03;;;8.96;100.00
55490;BME280;44029;52.956;4.772;2023-01-10T05:08:28;101382.41;;;9.03;100.00
55490;BME280;44029;52.956;4.772;2023-01-10T05:10:53;101397.03;;;8.90;100.00
55490;BME280;44029;52.956;4.772;2023-01-10T05:13:19;101415.25;;;8.78;100.00
55490;BME280;44029;52.956;4.772;2023-01-10T05:15:44;101413.56;;;8.77;100.00
55490;BME280;44029;52.956;4.772;2023-01-10T05:18:09;101416.13;;;8.71;100.00
55490;BME280;44029;52.956;4.772;2023-01-10T05:20:35;101420.31;;;8.74;100.00
55490;BME280;44029;52.956;4.772;2023-01-10T05:23:00;101412.50;;;8.78;100.00
55490;BME280;44029;52.956;4.772;2023-01-10T05:25:26;101401.53;;;8.59;100.00
55490;BME280;44029;52.956;4.772;2023-01-10T05:27:51;101410.03;;;8.69;100.00
55490;BME280;44029;52.956;4.772;2023-01-10T05:30:17;101420.31;;;8.74;100.00
55490;BME280;44029;52.956;4.772;2023-01-10T05:32:42;101418.63;;;8.73;100.00
55490;BME280;44029;52.956;4.772;2023-01-10T05:35:08;101428.94;;;8.71;100.00
55490;BME280;44029;52.956;4.772;2023-01-10T05:37:34;101415.63;;;8.56;100.00
55490;BME280;44029;52.956;4.772;2023-01-10T05:39:59;101417.94;;;8.59;100.00
55490;BME280;44029;52.956;4.772;2023-01-10T05:42:25;101426.84;;;8.48;100.00
55490;BME280;44029;52.956;4.772;2023-01-10T05:44:50;101431.44;;;8.47;100.00
55490;BME280;44029;52.956;4.772;2023-01-10T05:47:15;101440.72;;;8.40;100.00
55490;BME280;44029;52.956;4.772;2023-01-10T05:49:41;101452.50;;;8.40;100.00
55490;BME280;44029;52.956;4.772;2023-01-10T05:52:06;101456.28;;;8.39;100.00
55490;BME280;44029;52.956;4.772;2023-01-10T05:54:31;101452.47;;;8.47;100.00
55490;BME280;44029;52.956;4.772;2023-01-10T05:56:57;101461.47;;;8.47;100.00
55490;BME280;44029;52.956;4.772;2023-01-10T05:59:22;101458.78;;;8.41;100.00
55490;BME280;44029;52.956;4.772;2023-01-10T06:01:47;101464.72;;;8.31;100.00
55490;BME280;44029;52.956;4.772;2023-01-10T06:04:13;101476.03;;;8.35;100.00
55490;BME280;44029;52.956;4.772;2023-01-10T06:06:38;101473.94;;;8.37;100.00
55490;BME280;44029;52.956;4.772;2023-01-10T06:09:04;101481.84;;;8.51;100.00
55490;BME280;44029;52.956;4.772;2023-01-10T06:11:29;101479.03;;;8.65;100.00
55490;BME280;44029;52.956;4.772;2023-01-10T06:13:57;101479.91;;;8.84;100.00
55490;BME280;44029;52.956;4.772;2023-01-10T06:16:23;101482.25;;;8.80;100.00
55490;BME280;44029;52.956;4.772;2023-01-10T06:18:49;101480.03;;;8.70;100.00
55490;BME280;44029;52.956;4.772;2023-01-10T06:21:14;101475.59;;;8.69;100.00
55490;BME280;44029;52.956;4.772;2023-01-10T06:23:40;101474.28;;;8.79;100.00
55490;BME280;44029;52.956;4.772;2023-01-10T06:26:06;101472.16;;;8.81;100.00
55490;BME280;44029;52.956;4.772;2023-01-10T06:28:31;101464.72;;;8.88;100.00
55490;BME280;44029;52.956;4.772;2023-01-10T06:30:56;101463.25;;;8.92;100.00
55490;BME280;44029;52.956;4.772;2023-01-10T06:33:22;101464.00;;;8.99;100.00
55490;BME280;44029;52.956;4.772;2023-01-10T06:35:47;101462.94;;;9.00;100.00
55490;BME280;44029;52.956;4.772;2023-01-10T06:38:13;101449.97;;;9.14;100.00
55490;BME280;44029;52.956;4.772;2023-01-10T06:40:39;101467.03;;;9.16;100.00
55490;BME280;44029;52.956;4.772;2023-01-10T06:43:05;101469.97;;;9.15;100.00
55490;BME280;44029;52.956;4.772;2023-01-10T06:45:30;101475.75;;;9.25;100.00
55490;BME280;44029;52.956;4.772;2023-01-10T06:47:55;101478.69;;;9.23;100.00
55490;BME280;44029;52.956;4.772;2023-01-10T06:50:21;101477.59;;;9.31;100.00
55490;BME280;44029;52.956;4.772;2023-01-10T06:52:57;101481.75;;;9.34;100.00
55490;BME280;44029;52.956;4.772;2023-01-10T06:55:23;101485.78;;;9.31;100.00
55490;BME280;44029;52.956;4.772;2023-01-10T06:57:56;101477.88;;;9.41;100.00
55490;BME280;44029;52.956;4.772;2023-01-10T07:00:22;101480.22;;;9.19;100.00
55490;BME280;44029;52.956;4.772;2023-01-10T07:02:48;101490.50;;;9.24;100.00
55490;BME280;44029;52.956;4.772;2023-01-10T07:05:13;101500.34;;;9.25;100.00
55490;BME280;44029;52.956;4.772;2023-01-10T07:07:39;101505.38;;;9.28;100.00
55490;BME280;44029;52.956;4.772;2023-01-10T07:10:04;101510.91;;;9.21;100.00
55490;BME280;44029;52.956;4.772;2023-01-10T07:12:30;101521.53;;;9.11;100.00
55490;BME280;44029;52.956;4.772;2023-01-10T07:14:55;101531.75;;;9.16;100.00
55490;BME280;44029;52.956;4.772;2023-01-10T07:17:20;101538.13;;;9.09;100.00
55490;BME280;44029;52.956;4.772;2023-01-10T07:19:46;101536.34;;;9.22;100.00
55490;BME280;44029;52.956;4.772;2023-01-10T07:22:11;101535.69;;;9.01;100.00
55490;BME280;44029;52.956;4.772;2023-01-10T07:24:36;101541.81;;;8.97;100.00
55490;BME280;44029;52.956;4.772;2023-01-10T07:27:02;101547.25;;;9.03;100.00
55490;BME280;44029;52.956;4.772;2023-01-10T07:29:27;101540.34;;;9.19;100.00
55490;BME280;44029;52.956;4.772;2023-01-10T07:31:52;101549.25;;;9.15;100.00
55490;BME280;44029;52.956;4.772;2023-01-10T07:34:18;101552.59;;;9.17;100.00
55490;BME280;44029;52.956;4.772;2023-01-10T07:36:43;101551.41;;;9.06;100.00
55490;BME280;44029;52.956;4.772;2023-01-10T07:39:08;101550.75;;;9.11;100.00
55490;BME280;44029;52.956;4.772;2023-01-10T07:41:34;101538.31;;;9.15;100.00
55490;BME280;44029;52.956;4.772;2023-01-10T07:43:59;101546.16;;;9.04;100.00
55490;BME280;44029;52.956;4.772;2023-01-10T07:46:25;101538.91;;;9.17;100.00
55490;BME280;44029;52.956;4.772;2023-01-10T07:48:50;101538.47;;;9.20;100.00
55490;BME280;44029;52.956;4.772;2023-01-10T07:51:16;101544.56;;;9.22;100.00
55490;BME280;44029;52.956;4.772;2023-01-10T07:53:41;101539.56;;;9.12;100.00
55490;BME280;44029;52.956;4.772;2023-01-10T07:56:06;101541.69;;;9.35;100.00
55490;BME280;44029;52.956;4.772;2023-01-10T07:58:32;101549.78;;;9.23;100.00
55490;BME280;44029;52.956;4.772;2023-01-10T08:00:59;101557.31;;;9.28;100.00
55490;BME280;44029;52.956;4.772;2023-01-10T08:03:25;101549.94;;;9.28;100.00
55490;BME280;44029;52.956;4.772;2023-01-10T08:05:57;101553.41;;;9.42;100.00
55490;BME280;44029;52.956;4.772;2023-01-10T08:08:23;101554.50;;;9.16;100.00
55490;BME280;44029;52.956;4.772;2023-01-10T08:10:48;101551.25;;;9.26;100.00
55490;BME280;44029;52.956;4.772;2023-01-10T08:13:13;101557.63;;;9.38;100.00
55490;BME280;44029;52.956;4.772;2023-01-10T08:15:39;101550.91;;;9.41;100.00
55490;BME280;44029;52.956;4.772;2023-01-10T08:18:04;101549.16;;;9.46;100.00
55490;BME280;44029;52.956;4.772;2023-01-10T08:20:29;101556.75;;;9.44;100.00
55490;BME280;44029;52.956;4.772;2023-01-10T08:22:58;101555.09;;;9.62;100.00
55490;BME280;44029;52.956;4.772;2023-01-10T08:25:24;101563.31;;;9.62;100.00
55490;BME280;44029;52.956;4.772;2023-01-10T08:27:50;101558.59;;;9.51;100.00
55490;BME280;44029;52.956;4.772;2023-01-10T08:30:15;101559.69;;;9.68;100.00
55490;BME280;44029;52.956;4.772;2023-01-10T08:32:41;101551.53;;;9.61;100.00
55490;BME280;44029;52.956;4.772;2023-01-10T08:35:06;101543.53;;;9.60;100.00
55490;BME280;44029;52.956;4.772;2023-01-10T08:37:32;101546.25;;;9.41;100.00
55490;BME280;44029;52.956;4.772;2023-01-10T08:39:57;101543.31;;;9.61;100.00
55490;BME280;44029;52.956;4.772;2023-01-10T08:42:22;101550.38;;;9.51;100.00
55490;BME280;44029;52.956;4.772;2023-01-10T08:44:48;101552.38;;;9.62;100.00
55490;BME280;44029;52.956;4.772;2023-01-10T08:47:13;101548.34;;;9.46;100.00
55490;BME280;44029;52.956;4.772;2023-01-10T08:49:39;101557.75;;;9.50;100.00
55490;BME280;44029;52.956;4.772;2023-01-10T08:52:04;101557.97;;;9.48;100.00
55490;BME280;44029;52.956;4.772;2023-01-10T08:54:30;101566.50;;;9.59;100.00
55490;BME280;44029;52.956;4.772;2023-01-10T08:56:57;101567.00;;;9.49;100.00
55490;BME280;44029;52.956;4.772;2023-01-10T08:59:22;101560.41;;;9.57;100.00
55490;BME280;44029;52.956;4.772;2023-01-10T09:01:48;101550.84;;;9.66;100.00
55490;BME280;44029;52.956;4.772;2023-01-10T09:04:13;101551.91;;;9.65;100.00
55490;BME280;44029;52.956;4.772;2023-01-10T09:06:39;101553.72;;;9.53;100.00
55490;BME280;44029;52.956;4.772;2023-01-10T09:09:04;101547.63;;;9.51;100.00
55490;BME280;44029;52.956;4.772;2023-01-10T09:11:29;101555.66;;;9.71;100.00
55490;BME280;44029;52.956;4.772;2023-01-10T09:13:55;101552.09;;;9.70;100.00
55490;BME280;44029;52.956;4.772;2023-01-10T09:16:20;101556.19;;;9.61;100.00
55490;BME280;44029;52.956;4.772;2023-01-10T09:18:45;101551.47;;;9.68;100.00
55490;BME280;44029;52.956;4.772;2023-01-10T09:21:11;101547.50;;;9.64;100.00
55490;BME280;44029;52.956;4.772;2023-01-10T09:23:36;101546.06;;;9.61;100.00
55490;BME280;44029;52.956;4.772;2023-01-10T09:26:03;101538.06;;;9.60;100.00
55490;BME280;44029;52.956;4.772;2023-01-10T09:28:29;101544.84;;;9.57;100.00
55490;BME280;44029;52.956;4.772;2023-01-10T09:30:54;101542.38;;;9.49;100.00
55490;BME280;44029;52.956;4.772;2023-01-10T09:33:20;101546.88;;;9.62;100.00
55490;BME280;44029;52.956;4.772;2023-01-10T09:35:46;101540.44;;;9.56;100.00
55490;BME280;44029;52.956;4.772;2023-01-10T09:38:14;101546.91;;;9.80;100.00
55490;BME280;44029;52.956;4.772;2023-01-10T09:43:30;101549.47;;;9.94;100.00
55490;BME280;44029;52.956;4.772;2023-01-10T09:46:05;101552.97;;;10.01;100.00
55490;BME280;44029;52.956;4.772;2023-01-10T09:49:02;101552.53;;;9.85;100.00
55490;BME280;44029;52.956;4.772;2023-01-10T09:51:45;101550.72;;;9.79;100.00
55490;BME280;44029;52.956;4.772;2023-01-10T09:54:20;101543.03;;;9.88;100.00
55490;BME280;44029;52.956;4.772;2023-01-10T09:56:47;101543.34;;;9.80;100.00
55490;BME280;44029;52.956;4.772;2023-01-10T09:59:21;101539.78;;;9.98;100.00
55490;BME280;44029;52.956;4.772;2023-01-10T10:01:51;101538.91;;;9.79;100.00
55490;BME280;44029;52.956;4.772;2023-01-10T10:04:34;101538.31;;;9.95;100.00
55490;BME280;44029;52.956;4.772;2023-01-10T10:07:00;101534.75;;;9.95;100.00
55490;BME280;44029;52.956;4.772;2023-01-10T10:09:32;101535.78;;;9.75;100.00
55490;BME280;44029;52.956;4.772;2023-01-10T10:12:37;101535.94;;;9.99;100.00
55490;BME280;44029;52.956;4.772;2023-01-10T10:18:23;101515.75;;;10.00;100.00
55490;BME280;44029;52.956;4.772;2023-01-10T10:20:57;101514.66;;;9.82;100.00
55490;BME280;44029;52.956;4.772;2023-01-10T10:28:56;101511.03;;;10.07;100.00
55490;BME280;44029;52.956;4.772;2023-01-10T10:34:33;101503.63;;;10.07;100.00
55490;BME280;44029;52.956;4.772;2023-01-10T10:37:12;101501.19;;;9.99;100.00
55490;BME280;44029;52.956;4.772;2023-01-10T10:39:48;101497.97;;;9.91;100.00
55490;BME280;44029;52.956;4.772;2023-01-10T10:42:16;101492.00;;;9.94;100.00
55490;BME280;44029;52.956;4.772;2023-01-10T10:44:54;101487.78;;;9.79;100.00
55490;BME280;44029;52.956;4.772;2023-01-10T10:47:25;101488.75;;;9.85;100.00
55490;BME280;44029;52.956;4.772;2023-01-10T10:50:15;101480.94;;;9.52;100.00
55490;BME280;44029;52.956;4.772;2023-01-10T10:52:43;101470.22;;;9.50;100.00
55490;BME280;44029;52.956;4.772;2023-01-10T10:55:17;101475.16;;;9.60;100.00
55490;BME280;44029;52.956;4.772;2023-01-10T10:57:45;101476.25;;;9.59;100.00
55490;BME280;44029;52.956;4.772;2023-01-10T11:00:16;101474.41;;;9.71;100.00
55490;BME280;44029;52.956;4.772;2023-01-10T11:02:53;101467.72;;;9.67;100.00
55490;BME280;44029;52.956;4.772;2023-01-10T11:05:36;101461.31;;;9.73;100.00
55490;BME280;44029;52.956;4.772;2023-01-10T11:08:04;101460.28;;;9.56;100.00
55490;BME280;44029;52.956;4.772;2023-01-10T11:10:32;101465.13;;;9.35;100.00
55490;BME280;44029;52.956;4.772;2023-01-10T11:13:04;101459.91;;;9.52;100.00
55490;BME280;44029;52.956;4.772;2023-01-10T11:15:41;101462.94;;;9.44;100.00
55490;BME280;44029;52.956;4.772;2023-01-10T11:18:19;101461.47;;;9.23;100.00
55490;BME280;44029;52.956;4.772;2023-01-10T11:20:56;101465.56;;;9.32;100.00
55490;BME280;44029;52.956;4.772;2023-01-10T11:26:10;101448.88;;;9.40;100.00
55490;BME280;44029;52.956;4.772;2023-01-10T11:28:47;101445.44;;;9.26;100.00
55490;BME280;44029;52.956;4.772;2023-01-10T11:31:12;101451.53;;;9.28;100.00
55490;BME280;44029;52.956;4.772;2023-01-10T11:33:40;101449.03;;;9.45;100.00
55490;BME280;44029;52.956;4.772;2023-01-10T11:36:09;101442.06;;;9.50;100.00
55490;BME280;44029;52.956;4.772;2023-01-10T11:38:37;101436.59;;;9.31;100.00
55490;BME280;44029;52.956;4.772;2023-01-10T11:41:24;101414.22;;;9.34;100.00
55490;BME280;44029;52.956;4.772;2023-01-10T11:43:51;101423.66;;;9.20;100.00
55490;BME280;44029;52.956;4.772;2023-01-10T11:46:23;101421.94;;;9.25;100.00
55490;BME280;44029;52.956;4.772;2023-01-10T11:49:06;101405.03;;;9.28;100.00
55490;BME280;44029;52.956;4.772;2023-01-10T11:51:38;101402.47;;;9.34;100.00
55490;BME280;44029;52.956;4.772;2023-01-10T11:54:22;101393.44;;;9.33;100.00
55490;BME280;44029;52.956;4.772;2023-01-10T11:56:55;101399.13;;;9.13;100.00
55490;BME280;44029;52.956;4.772;2023-01-10T11:59:21;101397.97;;;9.02;100.00
55490;BME280;44029;52.956;4.772;2023-01-10T12:02:00;101401.63;;;9.15;100.00
55490;BME280;44029;52.956;4.772;2023-01-10T12:04:31;101387.97;;;9.15;100.00
55490;BME280;44029;52.956;4.772;2023-01-10T12:07:02;101380.00;;;9.13;100.00
55490;BME280;44029;52.956;4.772;2023-01-10T12:09:33;101369.44;;;9.17;100.00
55490;BME280;44029;52.956;4.772;2023-01-10T12:12:24;101365.94;;;9.09;100.00
55490;BME280;44029;52.956;4.772;2023-01-10T12:14:50;101367.91;;;9.21;100.00
55490;BME280;44029;52.956;4.772;2023-01-10T12:17:22;101351.28;;;9.22;100.00
55490;BME280;44029;52.956;4.772;2023-01-10T12:19:49;101345.88;;;9.16;100.00
55490;BME280;44029;52.956;4.772;2023-01-10T12:22:17;101341.50;;;9.15;100.00
55490;BME280;44029;52.956;4.772;2023-01-10T12:24:47;101340.56;;;9.39;100.00
55490;BME280;44029;52.956;4.772;2023-01-10T12:27:15;101332.03;;;9.47;100.00
55490;BME280;44029;52.956;4.772;2023-01-10T12:32:22;101328.88;;;9.32;100.00
55490;BME280;44029;52.956;4.772;2023-01-10T12:34:55;101326.44;;;9.42;100.00
55490;BME280;44029;52.956;4.772;2023-01-10T12:37:29;101319.63;;;9.33;100.00
55490;BME280;44029;52.956;4.772;2023-01-10T12:40:04;101306.19;;;9.13;100.00
55490;BME280;44029;52.956;4.772;2023-01-10T12:42:42;101312.72;;;8.94;100.00
55490;BME280;44029;52.956;4.772;2023-01-10T12:45:34;101314.25;;;9.08;100.00
55490;BME280;44029;52.956;4.772;2023-01-10T12:50:42;101289.88;;;8.88;100.00
55490;BME280;44029;52.956;4.772;2023-01-10T12:53:27;101287.91;;;8.95;100.00
55490;BME280;44029;52.956;4.772;2023-01-10T12:55:55;101273.56;;;8.81;100.00
55490;BME280;44029;52.956;4.772;2023-01-10T12:58:43;101271.44;;;8.83;100.00
55490;BME280;44029;52.956;4.772;2023-01-10T13:01:29;101270.91;;;8.93;100.00
55490;BME280;44029;52.956;4.772;2023-01-10T13:04:01;101260.81;;;8.94;100.00
55490;BME280;44029;52.956;4.772;2023-01-10T13:06:31;101252.38;;;8.95;100.00
55490;BME280;44029;52.956;4.772;2023-01-10T13:08:58;101249.50;;;8.90;100.00
55490;BME280;44029;52.956;4.772;2023-01-10T13:11:29;101230.66;;;9.00;100.00
55490;BME280;44029;52.956;4.772;2023-01-10T13:13:58;101232.66;;;8.93;100.00
55490;BME280;44029;52.956;4.772;2023-01-10T13:19:17;101215.66;;;8.91;100.00
55490;BME280;44029;52.956;4.772;2023-01-10T13:21:46;101221.13;;;8.73;100.00
55490;BME280;44029;52.956;4.772;2023-01-10T13:24:22;101212.38;;;9.01;100.00
55490;BME280;44029;52.956;4.772;2023-01-10T13:27:17;101209.94;;;9.11;100.00
55490;BME280;44029;52.956;4.772;2023-01-10T13:29:44;101206.63;;;9.21;100.00
55490;BME280;44029;52.956;4.772;2023-01-10T13:34:42;101195.38;;;8.99;100.00
55490;BME280;44029;52.956;4.772;2023-01-10T13:37:13;101198.84;;;9.06;100.00
55490;BME280;44029;52.956;4.772;2023-01-10T13:39:51;101190.78;;;9.11;100.00
55490;BME280;44029;52.956;4.772;2023-01-10T13:42:27;101190.47;;;8.89;100.00
55490;BME280;44029;52.956;4.772;2023-01-10T14:09:02;101150.28;;;8.59;100.00
55490;BME280;44029;52.956;4.772;2023-01-10T14:11:54;101152.09;;;8.65;100.00
55490;BME280;44029;52.956;4.772;2023-01-10T14:14:28;101134.06;;;8.64;100.00
55490;BME280;44029;52.956;4.772;2023-01-10T14:17:22;101125.03;;;8.45;100.00
55490;BME280;44029;52.956;4.772;2023-01-10T14:20:15;101126.72;;;8.46;100.00
55490;BME280;44029;52.956;4.772;2023-01-10T14:25:29;101104.50;;;8.24;100.00